• Join FlightAware (Why Join?)
  • Login
  • US Flag 
02:51AM EDT


 

Airport Tracker/Info


-or-


 

Live Flight TrackerFlight Track Log ✈ UAL684 ✈ 26-Aug-2014 ✈ KLAX - KORD

Flight Track Log - Related Links

Times and Time Zones

All times are in EDT time to prevent confusion due to time zone crossing. See the UAL684 flight status page for this flight to view local times or setup timezone preferences in your user account.

Time Position Orientation Groundspeed Altitude Reporting Facility
EDT Latitude Longitude Course Direction KTS MPH feet Rate Location/Type
10:11AM 33.9072 -118.4881 256° West 211 243 2,500  Level Los Angeles Center
10:12AM 33.8481 -118.5203 204° Southwest 250 288 4,600 2,100 Climbing Los Angeles Center
10:13AM 33.7778 -118.5186 179° South 272 313 6,900 2,580 Climbing Los Angeles Center
10:14AM 34.3338 -117.4938 62° Northeast  Level Estimated
10:14AM 33.6906 -118.4947 167° South 292 336 10,000  Level Los Angeles Center
10:15AM 34.3866 -117.3561 45° Northeast  Level FlightAware Approximate
10:15AM 33.6619 -118.3922 109° East 327 376 11,100  Level Los Angeles Center
10:16AM 33.9307 -118.5463 256° West  Level FlightAware Approximate
10:16AM 33.6789 -118.2808 80° East 372 428 13,100  Level Los Angeles Center
10:17AM 33.7292 -118.1750 60° Northeast 374 430 14,900 1,260 Climbing Los Angeles Center
10:18AM 33.8003 -118.0397 58° Northeast 406 467 15,800 1,140 Climbing Los Angeles Center
10:19AM 33.8950 -117.9547 37° Northeast 425 489 17,300 1,560 Climbing Los Angeles Center
10:20AM 33.9914 -117.8667 37° Northeast 433 498 19,100 1,500 Climbing Los Angeles Center
10:21AM 34.0894 -117.7772 37° Northeast 438 504 20,400 1,200 Climbing Los Angeles Center
10:22AM 34.1733 -117.6639 48° Northeast 450 518 21,600 1,380 Climbing Los Angeles Center
10:23AM 34.2764 -117.5244 48° Northeast 461 531 23,300 1,680 Climbing Los Angeles Center
10:24AM 34.3633 -117.4044 49° Northeast 473 544 25,100 1,380 Climbing Los Angeles Center
10:25AM 34.4494 -117.2867 48° Northeast 455 524 26,200 960 Climbing Los Angeles Center
10:26AM 34.5356 -117.1686 48° Northeast 464 534 27,200 720 Climbing Los Angeles Center
10:27AM 34.6222 -117.0494 49° Northeast 472 543 27,700 480 Climbing Los Angeles Center
10:28AM 34.7122 -116.9236 49° Northeast 492 566 28,300 600 Climbing Los Angeles Center
10:29AM 34.8028 -116.7975 49° Northeast 496 571 29,000 780 Climbing Los Angeles Center
10:30AM 34.9125 -116.6447 49° Northeast 498 573 30,000 1,020 Climbing Los Angeles Center
10:31AM 35.0067 -116.5194 47° Northeast 501 577 31,200 960 Climbing Los Angeles Center
10:32AM 35.1025 -116.4011 45° Northeast 500 575 32,000 720 Climbing Los Angeles Center
10:33AM 35.1975 -116.2811 46° Northeast 498 573 32,700 480 Climbing Los Angeles Center
10:34AM 35.2928 -116.1619 46° Northeast 493 567 33,000 120 Climbing Los Angeles Center
10:35AM 35.4069 -116.0161 46° Northeast 494 568 33,000 -60 Level Los Angeles Center
10:36AM 35.5033 -115.8983 45° Northeast 492 566 32,900 -60 Descending Los Angeles Center
10:37AM 35.6000 -115.7725 47° Northeast 494 568 32,900  Level Los Angeles Center
10:38AM 35.6967 -115.6517 45° Northeast 496 571 32,900  Level Los Angeles Center
10:40AM 35.7933 -115.5278 46° Northeast 501 577 33,000  Climbing Los Angeles Center
10:41AM 35.8889 -115.4056 46° Northeast 501 577 33,000  Level Los Angeles Center
10:42AM 36.0067 -115.2544 46° Northeast 509 586 33,000  Level Los Angeles Center
10:43AM 36.1033 -115.1272 47° Northeast 512 589 33,000  Level Los Angeles Center
10:44AM 36.2036 -115.0019 45° Northeast 514 592 33,000  Level Los Angeles Center
10:45AM 36.3033 -114.8750 46° Northeast 516 594 33,000  Level Los Angeles Center
10:46AM 36.4231 -114.7206 46° Northeast 516 594 33,000 120 Level Los Angeles Center
10:47AM 36.5225 -114.5900 47° Northeast 521 600 33,300 480 Climbing Los Angeles Center
10:48AM 36.6236 -114.4581 46° Northeast 522 601 34,000 780 Climbing Los Angeles Center
10:49AM 36.7211 -114.3267 47° Northeast 521 600 35,000 480 Climbing Los Angeles Center
10:50AM 36.8069 -114.1836 53° Northeast 520 598 35,000  Level Los Angeles Center
10:51AM 36.8786 -114.0269 60° Northeast 519 597 35,000 -60 Level Los Angeles Center
10:52AM 36.9631 -113.8508 59° Northeast 519 597 34,900 -60 Descending Los Angeles Center
10:53AM 37.0372 -113.6983 59° Northeast 518 596 34,900  Level Los Angeles Center
10:54AM 37.1111 -113.5447 59° Northeast 518 596 34,900  Level Los Angeles Center
10:55AM 37.1831 -113.3911 60° Northeast 517 595 35,000  Climbing Los Angeles Center
10:56AM 37.2711 -113.2053 59° Northeast 517 595 35,000  Level Los Angeles Center
10:57AM 37.3439 -113.0497 59° Northeast 518 596 35,000  Level Los Angeles Center
10:58AM 37.4156 -112.8942 60° Northeast 518 596 35,000  Level Los Angeles Center
10:59AM 37.4864 -112.7419 60° Northeast 518 596 35,000 -60 Level Los Angeles Center
11:00AM 37.5578 -112.5900 59° Northeast 518 596 34,900 -60 Descending Salt Lake Center
11:01AM 37.6300 -112.4369 59° Northeast 517 595 34,900  Level Salt Lake Center
11:02AM 37.7022 -112.2808 60° Northeast 517 595 35,000  Climbing Salt Lake Center
11:03AM 37.7747 -112.1217 60° Northeast 519 597 35,000  Level Salt Lake Center
11:04AM 37.8639 -111.9339 59° Northeast 520 598 35,000  Level Salt Lake Center
11:05AM 37.9356 -111.7744 60° Northeast 520 598 35,000  Level Salt Lake Center
11:06AM 38.0053 -111.6150 61° Northeast 520 598 35,000  Level Salt Lake Center
11:07AM 38.0097 -111.4397 88° East 497 572 35,000  Level Salt Lake Center
11:08AM 37.9947 -111.2692 96° East 488 562 35,000  Level Salt Lake Center
11:09AM 37.9797 -111.0964 96° East 489 563 35,000  Level Salt Lake Center
11:10AM 37.9914 -110.9111 85° East 503 579 35,000  Level Salt Lake Center
11:11AM 38.0553 -110.7942 55° Northeast 511 588 35,000 -60 Level Denver Center
11:12AM 38.1836 -110.7200 24° Northeast 511 588 34,900 -60 Descending Denver Center
11:13AM 38.3514 -110.7289 358° North 502 578 34,900  Level Denver Center
11:14AM 38.4908 -110.7169 North 506 582 34,900  Level Denver Center
11:15AM 38.6247 -110.6428 23° Northeast 525 604 35,000  Climbing Denver Center
11:16AM 38.7719 -110.5619 23° Northeast 520 598 35,000  Level Denver Center
11:17AM 38.8983 -110.4733 29° Northeast 521 600 35,000  Level Denver Center
11:18AM 38.9808 -110.3222 55° Northeast 517 595 35,000  Level Denver Center
11:19AM 39.0542 -110.1631 59° Northeast 518 596 35,000 -60 Level Denver Center
11:21AM 39.1281 -110.0053 59° Northeast 513 590 34,900  Descending Denver Center
11:22AM 39.2167 -109.8342 56° Northeast 514 592 35,000  Climbing Denver Center
11:23AM 39.3500 -109.6639 45° Northeast 519 597 35,000  Level Salt Lake Center
11:24AM 39.4294 -109.5608 45° Northeast 520 598 35,000  Level Denver Center
11:25AM 39.5272 -109.4353 45° Northeast 520 598 35,000  Level Denver Center
11:26AM 39.6411 -109.2878 45° Northeast 520 598 35,000  Level Denver Center
11:27AM 39.7433 -109.1519 46° Northeast 519 597 35,000 -60 Level Denver Center
11:28AM 39.8458 -109.0183 45° Northeast 519 597 34,900  Descending Denver Center
11:29AM 39.9472 -108.8858 45° Northeast 518 596 35,000  Climbing Denver Center
11:30AM 40.0592 -108.7369 45° Northeast 518 596 35,000  Level Denver Center
11:31AM 40.1550 -108.6092 46° Northeast 518 596 35,000  Level Denver Center
11:32AM 40.2672 -108.4589 46° Northeast 518 596 35,000  Level Denver Center
11:33AM 40.3633 -108.3308 45° Northeast 518 596 35,000  Level Denver Center
11:34AM 40.4753 -108.1792 46° Northeast 518 596 35,000  Level Denver Center
11:35AM 40.5722 -108.0483 46° Northeast 519 597 35,000  Level Denver Center
11:36AM 40.6850 -107.8947 46° Northeast 520 598 35,000  Level Denver Center
11:37AM 40.7806 -107.7644 46° Northeast 520 598 35,000  Level Denver Center
11:38AM 40.8922 -107.6108 46° Northeast 520 598 35,000  Level Denver Center
11:39AM 40.9856 -107.4811 46° Northeast 516 594 35,000  Level Denver Center
11:40AM 41.0961 -107.3269 46° Northeast 516 594 35,000  Level Denver Center
11:41AM 41.1892 -107.1958 47° Northeast 516 594 35,000  Level Denver Center
11:42AM 41.2656 -107.0097 61° Northeast 524 603 35,000  Level Denver Center
11:43AM 41.2961 -106.8356 77° East 512 589 35,000  Level Denver Center
11:44AM 41.3297 -106.6300 78° East 511 588 35,000  Level Denver Center
11:45AM 41.3578 -106.4528 78° East 509 586 35,000  Level Denver Center
11:46AM 41.3858 -106.2769 78° East 510 587 35,000  Level Denver Center
11:47AM 41.4169 -106.0717 79° East 509 586 35,000  Level Denver Center
11:48AM 41.4458 -105.8950 78° East 510 587 35,000  Level Denver Center
11:50AM 41.4753 -105.6878 79° East 510 587 35,000  Level Denver Center
11:51AM 41.5022 -105.5103 78° East 510 587 35,000  Level Denver Center
11:52AM 41.5336 -105.3058 78° East 507 583 35,000  Level Denver Center
11:53AM 41.5600 -105.1275 79° East 508 585 35,000  Level Denver Center
11:54AM 41.5892 -104.9169 79° East 515 593 35,000  Level Denver Center
11:55AM 41.6150 -104.7372 79° East 515 593 35,000  Level Denver Center
11:56AM 41.6453 -104.5311 79° East 511 588 35,000  Level Denver Center
11:57AM 41.6697 -104.3531 80° East 512 589 35,000  Level Denver Center
11:58AM 41.6983 -104.1472 79° East 511 588 35,000 -60 Level Denver Center
11:59AM 41.7231 -103.9706 79° East 508 585 34,900 -60 Descending Denver Center
12:00PM 41.7500 -103.7656 80° East 505 581 34,900  Level Denver Center
12:01PM 41.7725 -103.5897 80° East 505 581 34,900  Level Denver Center
12:02PM 41.8008 -103.3853 79° East 504 580 34,900  Level Denver Center
12:03PM 41.8233 -103.2078 80° East 504 580 35,000  Climbing Denver Center
12:04PM 41.8492 -103.0022 80° East 504 580 35,000  Level Denver Center
12:05PM 41.8714 -102.8264 80° East 502 578 35,000 -60 Level Denver Center
12:06PM 41.8972 -102.6211 80° East 502 578 34,900  Descending Denver Center
12:07PM 41.9194 -102.4444 80° East 503 579 35,000  Climbing Denver Center
12:08PM 41.9444 -102.2375 81° East 503 579 35,000  Level Denver Center
12:09PM 41.9675 -102.0439 81° East 503 579 35,000  Level Denver Center
12:10PM 41.9878 -101.8642 81° East 504 580 35,000  Level Denver Center
12:11PM 42.0133 -101.6533 81° East 507 583 35,000  Level Denver Center
12:12PM 42.0333 -101.4750 81° East 506 582 35,000  Level Denver Center
12:13PM 42.0569 -101.2636 81° East 507 583 35,000  Level Denver Center
12:14PM 42.0772 -101.0819 81° East 511 588 35,000  Level Denver Center
12:15PM 42.0964 -100.9017 82° East 509 586 35,000  Level Denver Center
12:16PM 42.1178 -100.6914 82° East 509 586 35,000  Level Denver Center
12:18PM 42.1397 -100.4836 82° East 508 585 35,000  Level Minneapolis Center
12:18PM 42.1589 -100.2983 82° East 510 587 35,000  Level Denver Center
12:20PM 42.1778 -100.1069 82° East 508 585 35,000  Level Minneapolis Center
12:21PM 42.1975 -99.9183 82° East 508 585 35,000  Level Minneapolis Center
12:22PM 42.2200 -99.6903 82° East 508 585 35,000  Level Minneapolis Center
12:23PM 42.2375 -99.5017 83° East 508 585 35,000  Level Minneapolis Center
12:24PM 42.2553 -99.3119 83° East 508 585 35,000  Level Minneapolis Center
12:25PM 42.2731 -99.1219 83° East 508 585 35,000  Level Minneapolis Center
12:26PM 42.2911 -98.9308 83° East 508 585 35,000  Level Minneapolis Center
12:27PM 42.3072 -98.7406 83° East 509 586 35,000  Level Minneapolis Center
12:28PM 42.3244 -98.5497 83° East 509 586 35,000  Level Minneapolis Center
12:29PM 42.3444 -98.3189 83° East 511 588 35,000  Level Minneapolis Center
12:30PM 42.3608 -98.1264 83° East 512 589 35,000  Level Minneapolis Center
12:31PM 42.3764 -97.9361 84° East 511 588 35,000 -60 Level Minneapolis Center
12:32PM 42.3894 -97.7661 84° East 511 588 34,900  Descending Minneapolis Center
12:33PM 42.4067 -97.5375 84° East 511 588 35,000  Climbing Minneapolis Center
12:34PM 42.4222 -97.3467 84° East 511 588 35,000  Level Minneapolis Center
12:35PM 42.4361 -97.1550 84° East 511 588 35,000  Level Minneapolis Center
12:36PM 42.4506 -96.9639 84° East 511 588 35,000  Level Minneapolis Center
12:37PM 42.4636 -96.7736 85° East 511 588 35,000  Level Minneapolis Center
12:38PM 42.4769 -96.5825 85° East 511 588 35,000  Level Minneapolis Center
12:39PM 42.4922 -96.3522 85° East 510 587 35,000  Level Minneapolis Center
12:40PM 42.5056 -96.1600 85° East 511 588 35,000  Level Minneapolis Center
12:41PM 42.5181 -95.9692 85° East 508 585 35,000 -60 Level Minneapolis Center
12:42PM 42.5300 -95.7775 85° East 511 588 34,900  Descending Minneapolis Center
12:43PM 42.5414 -95.5858 85° East 510 587 35,000  Climbing Minneapolis Center
12:44PM 42.5528 -95.3931 85° East 510 587 35,000  Level Minneapolis Center
12:45PM 42.5642 -95.2028 85° East 509 586 35,000 -60 Level Minneapolis Center
12:47PM 42.5767 -94.9739 86° East 508 585 34,900  Descending Minneapolis Center
12:48PM 42.5864 -94.7833 86° East 508 585 35,000  Climbing Minneapolis Center
12:49PM 42.5964 -94.5931 86° East 507 583 35,000  Level Minneapolis Center
12:50PM 42.6058 -94.4019 86° East 507 583 35,000  Level Minneapolis Center
12:51PM 42.6106 -94.2139 88° East 504 580 35,000  Level Minneapolis Center
12:52PM 42.6028 -94.0247 93° East 503 579 35,000 -60 Level Minneapolis Center
12:53PM 42.5958 -93.7975 92° East 502 578 34,900 -60 Descending Minneapolis Center
12:54PM 42.5892 -93.6067 93° East 502 578 34,900  Level Minneapolis Center
12:55PM 42.5825 -93.4306 93° East 506 582 35,000  Climbing Minneapolis Center
12:56PM 42.5756 -93.2422 93° East 506 582 35,000  Level Minneapolis Center
12:57PM 42.5658 -93.0114 93° East 509 586 35,000  Level Minneapolis Center
12:58PM 42.5531 -92.7133 93° East 504 580 35,000 -60 Level Chicago Center
12:59PM 42.5444 -92.5250 93° East 504 580 34,900 -120 Descending Chicago Center
01:01PM 42.5367 -92.3378 93° East 503 579 34,800 -540 Descending Chicago Center
01:02PM 42.5283 -92.1517 93° East 501 577 33,800 -960 Descending Chicago Center
01:03PM 42.5244 -91.9658 92° East 501 577 32,900 -960 Descending Chicago Center
01:04PM 42.5261 -91.7781 89° East 501 577 31,900 -960 Descending Chicago Center
01:05PM 42.5267 -91.5856 90° East 505 581 31,000 -480 Descending Chicago Center
01:06PM 42.5278 -91.3600 90° East 502 578 31,000  Level Chicago Center
01:07PM 42.5278 -91.1736 90° East 497 572 31,000  Level Chicago Center
01:08PM 42.5264 -90.9800 90° East 495 570 31,000  Level Chicago Center
01:09PM 42.5261 -90.7947 90° East 495 570 31,000  Level Chicago Center
01:10PM 42.5256 -90.6092 90° East 494 568 31,000  Level Chicago Center
01:11PM 42.5244 -90.4236 90° East 494 568 31,000 -300 Level Chicago Center
01:12PM 42.5219 -90.2378 91° East 494 568 30,500 -1,500 Descending Chicago Center
01:13PM 42.5158 -90.0533 93° East 496 571 28,000 -2,520 Descending Chicago Center
01:14PM 42.4997 -89.8383 96° East 485 558 25,400 -2,400 Descending Chicago Center
01:15PM 42.4906 -89.6686 94° East 464 534 23,100 -2,160 Descending Chicago Center
01:16PM 42.4797 -89.5006 95° East 456 525 21,000 -2,160 Descending Chicago Center
01:17PM 42.4683 -89.3358 95° East 447 514 18,700 -2,100 Descending Chicago Center
01:18PM 42.4575 -89.1761 95° East 435 501 16,700 -2,280 Descending Chicago Center
01:19PM 42.4450 -88.9903 95° East 420 483 14,100 -2,280 Descending Chicago Center
01:20PM 42.4339 -88.8369 96° East 414 476 12,100 -1,500 Descending Chicago Center
01:21PM 42.4236 -88.6914 95° East 398 458 11,000 -660 Descending Chicago Center
01:22PM 42.3964 -88.5714 107° East 338 389 10,800 -900 Descending Chicago Center
01:23PM 42.3631 -88.4586 112° Southeast 328 377 9,200 -1,380 Descending Chicago Center
01:24PM 42.3111 -88.3425 121° Southeast 318 366 8,000 -900 Descending Chicago Center
01:25PM 42.2653 -88.2617 127° Southeast 274 315 7,400 -840 Descending Chicago Center
01:26PM 42.2000 -88.2431 168° South 243 280 6,300 -1,080 Descending Chicago Center
01:27PM 42.1331 -88.2325 173° South 226 260 5,200 -1,020 Descending Chicago Center
01:28PM 42.0747 -88.2233 173° South 211 243 4,200 -600 Descending Chicago Center
01:29PM 42.0222 -88.1950 158° South 207 238 4,000 -300 Descending Chicago Center
01:30PM 41.9975 -88.1244 115° Southeast 208 239 3,700 -780 Descending Chicago Center
01:31PM 41.9836 -88.0517 104° East 205 236 2,500 -1,080 Descending Chicago Center
01:32PM 41.9836 -87.9808 90° East 176 203 1,600 -840 Descending Chicago Center
01:33PM 41.9842 -87.9292 89° East 146 168 900 -720 Descending Chicago Center